Windom, Indiana
Current Conditions -  °F | °C
As of 12:35 PM on Saturday 25 Oct 2014 (Local Time) from KDCY Reporting Station
Clear Clear  
Wind Chill: 72°   Ceiling: Unl
Heat Index: 72°   Visibility: 10mi
Dew Point: 59°   Wind: 8mph
Humidity: 65%   Direction: 250°WSW
Pressure: 29.98"   Gusts: NA
Location:  38.6262°N, 86.7615°W
Report Text: KDCY 251735Z AUTO 25007KT 10SM CLR 22/15 A2998 RMK AO2 T02200151
Loading
Personal Weather Stations






























Interactive Weather Map New forecast layout! Learn more

10-Day Weather Forecast

Advertisements
Track Severe Weather on mobile